DLH23 EDDF-EGLL
Flight info
| Callsign | DLH23 |
|---|---|
| Flight time | 1h 15m |
| Altitude | 40000 |
| Route | OBOKA2E OBOKA Z29 TORNU DCT ABNED L980 LOGAN |
| Aircraft | A339/H-SADE1E2E3GHIJ3J5M1P2RWXY/LB2D1 |
Departure
| Time | 2026-04-14 12:01 |
|---|---|
| Airport | Frankfurt Main Airport (EDDF) |
Arrival
| Time | 2026-04-14 13:17 |
|---|---|
| Airport | London Heathrow Airport (EGLL) |
| Time | Latitude | Longitude | Altitude | Speed | Heading |
|---|---|---|---|---|---|
| 2026-04-14 11:39 | 50.04430 | 8.56271 | 370 ft | 0 kts | 165° |
| 2026-04-14 11:47 | 50.04442 | 8.56266 | 371 ft | 2 kts | 167° |
| 2026-04-14 11:47 | 50.04456 | 8.56261 | 371 ft | 2 kts | 165° |
| 2026-04-14 11:47 | 50.04471 | 8.56256 | 371 ft | 2 kts | 189° |
| 2026-04-14 11:47 | 50.04485 | 8.56265 | 372 ft | 2 kts | 220° |
| 2026-04-14 11:48 | 50.04493 | 8.56281 | 372 ft | 1 kts | 248° |
| 2026-04-14 11:48 | 50.04495 | 8.56289 | 372 ft | 0 kts | 250° |
| 2026-04-14 11:54 | 50.04494 | 8.56285 | 372 ft | 1 kts | 251° |
| 2026-04-14 11:55 | 50.04491 | 8.56272 | 372 ft | 3 kts | 250° |
| 2026-04-14 11:55 | 50.04478 | 8.56220 | 371 ft | 6 kts | 249° |
| 2026-04-14 11:55 | 50.04457 | 8.56133 | 371 ft | 10 kts | 249° |
| 2026-04-14 11:55 | 50.04430 | 8.56041 | 370 ft | 7 kts | 226° |
| 2026-04-14 11:56 | 50.04376 | 8.56038 | 369 ft | 10 kts | 162° |
| 2026-04-14 11:56 | 50.04305 | 8.56081 | 368 ft | 7 kts | 136° |
| 2026-04-14 11:56 | 50.04292 | 8.56166 | 368 ft | 9 kts | 111° |
| 2026-04-14 11:56 | 50.04239 | 8.56244 | 367 ft | 12 kts | 157° |
| 2026-04-14 11:57 | 50.04150 | 8.56269 | 365 ft | 13 kts | 203° |
| 2026-04-14 11:57 | 50.04093 | 8.56132 | 362 ft | 17 kts | 251° |
| 2026-04-14 11:57 | 50.04048 | 8.55946 | 360 ft | 19 kts | 250° |
| 2026-04-14 11:57 | 50.03999 | 8.55738 | 357 ft | 20 kts | 250° |
| 2026-04-14 11:58 | 50.03948 | 8.55524 | 357 ft | 21 kts | 250° |
| 2026-04-14 11:58 | 50.03896 | 8.55307 | 357 ft | 21 kts | 250° |
| 2026-04-14 11:58 | 50.03841 | 8.55080 | 354 ft | 23 kts | 250° |
| 2026-04-14 11:58 | 50.03783 | 8.54838 | 351 ft | 24 kts | 250° |
| 2026-04-14 11:59 | 50.03721 | 8.54578 | 347 ft | 25 kts | 250° |
| 2026-04-14 11:59 | 50.03672 | 8.54375 | 346 ft | 11 kts | 248° |
| 2026-04-14 11:59 | 50.03611 | 8.54317 | 345 ft | 12 kts | 176° |
| 2026-04-14 11:59 | 50.03523 | 8.54359 | 343 ft | 12 kts | 160° |
| 2026-04-14 12:00 | 50.03489 | 8.54396 | 342 ft | 4 kts | 94° |
| 2026-04-14 12:00 | 50.03492 | 8.54415 | 342 ft | 0 kts | 72° |
| 2026-04-14 12:00 | 50.03582 | 8.54806 | 347 ft | 81 kts | 69° |
| 2026-04-14 12:00 | 50.03867 | 8.55997 | 354 ft | 151 kts | 69° |
| 2026-04-14 12:01 | 50.04252 | 8.57651 | 910 ft | 167 kts | 70° |
| 2026-04-14 12:01 | 50.04632 | 8.59291 | 1786 ft | 165 kts | 68° |
| 2026-04-14 12:01 | 50.04993 | 8.60942 | 2541 ft | 167 kts | 69° |
| 2026-04-14 12:01 | 50.05394 | 8.62744 | 3009 ft | 185 kts | 68° |
| 2026-04-14 12:02 | 50.05834 | 8.64705 | 3493 ft | 203 kts | 68° |
| 2026-04-14 12:02 | 50.06327 | 8.66850 | 4034 ft | 221 kts | 68° |
| 2026-04-14 12:02 | 50.06848 | 8.69124 | 4805 ft | 228 kts | 66° |
| 2026-04-14 12:02 | 50.07713 | 8.71143 | 5681 ft | 227 kts | 39° |
| 2026-04-14 12:03 | 50.09093 | 8.72388 | 6361 ft | 239 kts | 23° |
| 2026-04-14 12:03 | 50.10655 | 8.73425 | 7093 ft | 249 kts | 22° |
| 2026-04-14 12:03 | 50.12244 | 8.74459 | 7894 ft | 256 kts | 22° |
| 2026-04-14 12:03 | 50.13925 | 8.75565 | 8651 ft | 266 kts | 22° |
| 2026-04-14 12:04 | 50.15642 | 8.76712 | 9457 ft | 274 kts | 23° |
| 2026-04-14 12:04 | 50.17392 | 8.77889 | 10270 ft | 281 kts | 23° |
| 2026-04-14 12:04 | 50.19178 | 8.79098 | 11123 ft | 286 kts | 23° |
| 2026-04-14 12:04 | 50.21008 | 8.80339 | 12001 ft | 291 kts | 23° |
| 2026-04-14 12:05 | 50.22875 | 8.81608 | 12878 ft | 296 kts | 22° |
| 2026-04-14 12:05 | 50.24853 | 8.82429 | 13712 ft | 298 kts | 359° |
| 2026-04-14 12:05 | 50.26848 | 8.81806 | 14587 ft | 298 kts | 332° |
| 2026-04-14 12:05 | 50.28464 | 8.79900 | 15469 ft | 296 kts | 307° |
| 2026-04-14 12:06 | 50.29413 | 8.77136 | 16345 ft | 294 kts | 288° |
| 2026-04-14 12:06 | 50.30056 | 8.74099 | 17217 ft | 298 kts | 287° |
| 2026-04-14 12:06 | 50.30698 | 8.71022 | 18093 ft | 302 kts | 287° |
| 2026-04-14 12:06 | 50.31358 | 8.67916 | 18953 ft | 306 kts | 288° |
| 2026-04-14 12:07 | 50.32047 | 8.64723 | 19817 ft | 310 kts | 288° |
| 2026-04-14 12:07 | 50.32737 | 8.61548 | 20667 ft | 313 kts | 288° |
| 2026-04-14 12:07 | 50.33435 | 8.58342 | 21486 ft | 317 kts | 288° |
| 2026-04-14 12:07 | 50.34147 | 8.55069 | 22276 ft | 320 kts | 288° |
| 2026-04-14 12:08 | 50.34863 | 8.51777 | 23033 ft | 324 kts | 288° |
| 2026-04-14 12:08 | 50.35585 | 8.48453 | 23779 ft | 328 kts | 288° |
| 2026-04-14 12:08 | 50.36322 | 8.45050 | 24510 ft | 331 kts | 288° |
| 2026-04-14 12:08 | 50.37060 | 8.41633 | 25201 ft | 335 kts | 289° |
| 2026-04-14 12:09 | 50.37635 | 8.38103 | 25852 ft | 339 kts | 277° |
| 2026-04-14 12:09 | 50.37613 | 8.34447 | 26499 ft | 343 kts | 262° |
| 2026-04-14 12:09 | 50.37038 | 8.30810 | 27136 ft | 347 kts | 254° |
| 2026-04-14 12:09 | 50.36316 | 8.27196 | 27741 ft | 351 kts | 253° |
| 2026-04-14 12:10 | 50.35578 | 8.23590 | 28316 ft | 355 kts | 253° |
| 2026-04-14 12:10 | 50.34828 | 8.19903 | 28871 ft | 359 kts | 253° |
| 2026-04-14 12:10 | 50.34072 | 8.16162 | 29426 ft | 363 kts | 254° |
| 2026-04-14 12:10 | 50.33306 | 8.12363 | 29984 ft | 367 kts | 254° |
| 2026-04-14 12:11 | 50.32549 | 8.08599 | 30512 ft | 370 kts | 254° |
| 2026-04-14 12:11 | 50.31772 | 8.04742 | 30992 ft | 374 kts | 254° |
| 2026-04-14 12:11 | 50.31012 | 8.00858 | 31408 ft | 377 kts | 257° |
| 2026-04-14 12:11 | 50.30513 | 7.96847 | 31812 ft | 379 kts | 265° |
| 2026-04-14 12:12 | 50.30360 | 7.92745 | 32229 ft | 380 kts | 272° |
| 2026-04-14 12:12 | 50.30563 | 7.88596 | 32657 ft | 381 kts | 281° |
| 2026-04-14 12:12 | 50.31112 | 7.84603 | 33060 ft | 382 kts | 288° |
| 2026-04-14 12:12 | 50.32005 | 7.80712 | 33450 ft | 384 kts | 295° |
| 2026-04-14 12:13 | 50.33125 | 7.76908 | 33844 ft | 386 kts | 299° |
| 2026-04-14 12:13 | 50.34478 | 7.73322 | 34236 ft | 387 kts | 306° |
| 2026-04-14 12:13 | 50.36117 | 7.69985 | 34588 ft | 387 kts | 313° |
| 2026-04-14 12:13 | 50.38003 | 7.66999 | 34894 ft | 389 kts | 319° |
| 2026-04-14 12:14 | 50.40123 | 7.64387 | 35153 ft | 392 kts | 326° |
| 2026-04-14 12:14 | 50.42473 | 7.62178 | 35420 ft | 396 kts | 333° |
| 2026-04-14 12:14 | 50.44961 | 7.60356 | 35701 ft | 398 kts | 336° |
| 2026-04-14 12:14 | 50.47540 | 7.58592 | 35897 ft | 404 kts | 336° |
| 2026-04-14 12:15 | 50.50118 | 7.56845 | 36142 ft | 410 kts | 336° |
| 2026-04-14 12:15 | 50.52713 | 7.55061 | 36458 ft | 413 kts | 335° |
| 2026-04-14 12:15 | 50.55301 | 7.53056 | 36775 ft | 416 kts | 332° |
| 2026-04-14 12:15 | 50.57828 | 7.50813 | 37077 ft | 419 kts | 329° |
| 2026-04-14 12:16 | 50.60276 | 7.48390 | 37380 ft | 422 kts | 327° |
| 2026-04-14 12:16 | 50.62743 | 7.45873 | 37683 ft | 425 kts | 327° |
| 2026-04-14 12:16 | 50.65221 | 7.43327 | 37979 ft | 427 kts | 327° |
| 2026-04-14 12:16 | 50.67695 | 7.40688 | 38342 ft | 428 kts | 324° |
| 2026-04-14 12:17 | 50.69997 | 7.37823 | 38694 ft | 428 kts | 320° |
| 2026-04-14 12:17 | 50.72176 | 7.34645 | 38988 ft | 430 kts | 314° |
| 2026-04-14 12:17 | 50.74219 | 7.31146 | 39282 ft | 432 kts | 310° |
| 2026-04-14 12:17 | 50.76059 | 7.27439 | 39570 ft | 434 kts | 306° |
| 2026-04-14 12:18 | 50.77726 | 7.23463 | 39858 ft | 435 kts | 301° |
| 2026-04-14 12:18 | 50.79205 | 7.19267 | 40116 ft | 438 kts | 298° |
| 2026-04-14 12:18 | 50.81989 | 7.10747 | 40196 ft | 441 kts | 298° |
| 2026-04-14 12:19 | 50.84766 | 7.02155 | 40202 ft | 441 kts | 298° |
| 2026-04-14 12:19 | 50.87552 | 6.93541 | 40198 ft | 440 kts | 298° |
| 2026-04-14 12:20 | 50.90326 | 6.84905 | 40198 ft | 440 kts | 298° |
| 2026-04-14 12:20 | 50.93094 | 6.76261 | 40197 ft | 440 kts | 298° |
| 2026-04-14 12:21 | 50.95837 | 6.67666 | 40196 ft | 440 kts | 298° |
| 2026-04-14 12:21 | 50.98589 | 6.59021 | 40197 ft | 440 kts | 298° |
| 2026-04-14 12:22 | 51.01338 | 6.50355 | 40201 ft | 440 kts | 298° |
| 2026-04-14 12:22 | 51.04065 | 6.41728 | 40196 ft | 440 kts | 298° |
| 2026-04-14 12:23 | 51.06794 | 6.33066 | 40190 ft | 440 kts | 297° |
| 2026-04-14 12:23 | 51.09512 | 6.24397 | 40204 ft | 439 kts | 297° |
| 2026-04-14 12:24 | 51.12190 | 6.15698 | 40199 ft | 440 kts | 295° |
| 2026-04-14 12:24 | 51.14414 | 6.06622 | 40188 ft | 441 kts | 290° |
| 2026-04-14 12:25 | 51.16077 | 5.97246 | 40196 ft | 441 kts | 286° |
| 2026-04-14 12:25 | 51.17632 | 5.87815 | 40190 ft | 440 kts | 288° |
| 2026-04-14 12:26 | 51.19586 | 5.78626 | 40179 ft | 438 kts | 293° |
| 2026-04-14 12:26 | 51.21913 | 5.69710 | 40179 ft | 438 kts | 294° |
| 2026-04-14 12:27 | 51.24278 | 5.60746 | 40183 ft | 437 kts | 294° |
| 2026-04-14 12:27 | 51.26623 | 5.51814 | 40186 ft | 437 kts | 294° |
| 2026-04-14 12:28 | 51.28949 | 5.42913 | 40187 ft | 437 kts | 295° |
| 2026-04-14 12:28 | 51.31289 | 5.33925 | 40186 ft | 437 kts | 294° |
| 2026-04-14 12:29 | 51.33593 | 5.25035 | 40191 ft | 436 kts | 294° |
| 2026-04-14 12:29 | 51.35904 | 5.16080 | 40189 ft | 435 kts | 294° |
| 2026-04-14 12:30 | 51.38197 | 5.07159 | 40189 ft | 434 kts | 294° |
| 2026-04-14 12:30 | 51.40476 | 4.98259 | 40192 ft | 434 kts | 294° |
| 2026-04-14 12:31 | 51.42760 | 4.89304 | 40195 ft | 434 kts | 294° |
| 2026-04-14 12:31 | 51.45034 | 4.80355 | 40198 ft | 433 kts | 294° |
| 2026-04-14 12:32 | 51.47284 | 4.71458 | 40198 ft | 432 kts | 294° |
| 2026-04-14 12:32 | 51.49532 | 4.62534 | 40195 ft | 432 kts | 294° |
| 2026-04-14 12:33 | 51.51770 | 4.53623 | 40199 ft | 431 kts | 294° |
| 2026-04-14 12:33 | 51.54001 | 4.44697 | 40198 ft | 431 kts | 294° |
| 2026-04-14 12:34 | 51.56227 | 4.35759 | 40201 ft | 431 kts | 294° |
| 2026-04-14 12:34 | 51.58429 | 4.26876 | 40194 ft | 430 kts | 293° |
| 2026-04-14 12:35 | 51.60633 | 4.17953 | 40196 ft | 430 kts | 293° |
| 2026-04-14 12:35 | 51.62837 | 4.09000 | 40186 ft | 432 kts | 293° |
| 2026-04-14 12:36 | 51.65027 | 4.00059 | 40186 ft | 431 kts | 293° |
| 2026-04-14 12:36 | 51.67226 | 3.91046 | 40201 ft | 431 kts | 293° |
| 2026-04-14 12:37 | 51.69399 | 3.82105 | 40199 ft | 431 kts | 293° |
| 2026-04-14 12:37 | 51.71566 | 3.73149 | 40204 ft | 432 kts | 293° |
| 2026-04-14 12:38 | 51.74819 | 3.59642 | 40200 ft | 432 kts | 294° |
| 2026-04-14 12:39 | 51.76969 | 3.50666 | 40199 ft | 431 kts | 294° |
| 2026-04-14 12:39 | 51.79115 | 3.41678 | 39681 ft | 433 kts | 294° |
| 2026-04-14 12:39 | 51.80210 | 3.37072 | 38871 ft | 439 kts | 294° |
| 2026-04-14 12:40 | 51.81269 | 3.32606 | 38226 ft | 440 kts | 293° |
| 2026-04-14 12:40 | 51.82339 | 3.28082 | 37800 ft | 434 kts | 294° |
| 2026-04-14 12:40 | 51.83337 | 3.23473 | 37421 ft | 430 kts | 289° |
| 2026-04-14 12:40 | 51.83992 | 3.18830 | 37038 ft | 427 kts | 283° |
| 2026-04-14 12:41 | 51.84322 | 3.14070 | 36638 ft | 426 kts | 277° |
| 2026-04-14 12:41 | 51.84324 | 3.09317 | 36213 ft | 425 kts | 271° |
| 2026-04-14 12:41 | 51.84077 | 3.04641 | 35854 ft | 422 kts | 270° |
| 2026-04-14 12:41 | 51.83778 | 2.99925 | 35452 ft | 418 kts | 269° |
| 2026-04-14 12:42 | 51.83477 | 2.95321 | 35052 ft | 415 kts | 270° |
| 2026-04-14 12:42 | 51.83174 | 2.90725 | 34649 ft | 411 kts | 270° |
| 2026-04-14 12:42 | 51.82873 | 2.86155 | 34245 ft | 407 kts | 270° |
| 2026-04-14 12:42 | 51.82573 | 2.81646 | 33773 ft | 404 kts | 270° |
| 2026-04-14 12:43 | 51.82274 | 2.77128 | 33281 ft | 401 kts | 270° |
| 2026-04-14 12:43 | 51.81977 | 2.72690 | 32813 ft | 398 kts | 270° |
| 2026-04-14 12:43 | 51.81681 | 2.68297 | 32366 ft | 395 kts | 270° |
| 2026-04-14 12:43 | 51.81381 | 2.63905 | 31922 ft | 391 kts | 270° |
| 2026-04-14 12:44 | 51.81086 | 2.59638 | 31501 ft | 387 kts | 270° |
| 2026-04-14 12:44 | 51.80785 | 2.55314 | 31066 ft | 383 kts | 270° |
| 2026-04-14 12:44 | 51.80490 | 2.51110 | 30641 ft | 380 kts | 270° |
| 2026-04-14 12:45 | 51.79903 | 2.42719 | 29743 ft | 373 kts | 270° |
| 2026-04-14 12:45 | 51.79616 | 2.38611 | 29273 ft | 371 kts | 270° |
| 2026-04-14 12:45 | 51.79342 | 2.34728 | 28798 ft | 369 kts | 269° |
| 2026-04-14 12:45 | 51.79050 | 2.30643 | 28312 ft | 367 kts | 269° |
| 2026-04-14 12:46 | 51.78759 | 2.26574 | 27819 ft | 366 kts | 269° |
| 2026-04-14 12:46 | 51.78465 | 2.22496 | 27329 ft | 364 kts | 269° |
| 2026-04-14 12:46 | 51.78210 | 2.18469 | 26852 ft | 362 kts | 270° |
| 2026-04-14 12:46 | 51.77981 | 2.14498 | 26377 ft | 360 kts | 269° |
| 2026-04-14 12:47 | 51.77749 | 2.10457 | 25903 ft | 359 kts | 269° |
| 2026-04-14 12:47 | 51.77517 | 2.06491 | 25435 ft | 357 kts | 269° |
| 2026-04-14 12:47 | 51.77285 | 2.02542 | 24973 ft | 355 kts | 269° |
| 2026-04-14 12:47 | 51.77049 | 1.98575 | 24508 ft | 354 kts | 269° |
| 2026-04-14 12:48 | 51.76814 | 1.94648 | 24024 ft | 354 kts | 269° |
| 2026-04-14 12:48 | 51.76579 | 1.90726 | 23563 ft | 353 kts | 269° |
| 2026-04-14 12:48 | 51.76344 | 1.86831 | 23139 ft | 351 kts | 269° |
| 2026-04-14 12:48 | 51.76107 | 1.82949 | 22750 ft | 348 kts | 268° |
| 2026-04-14 12:49 | 51.75869 | 1.79068 | 22341 ft | 346 kts | 268° |
| 2026-04-14 12:49 | 51.75634 | 1.75230 | 21935 ft | 344 kts | 268° |
| 2026-04-14 12:49 | 51.75396 | 1.71396 | 21523 ft | 342 kts | 268° |
| 2026-04-14 12:49 | 51.75159 | 1.67605 | 21138 ft | 340 kts | 268° |
| 2026-04-14 12:50 | 51.74923 | 1.63858 | 20742 ft | 338 kts | 268° |
| 2026-04-14 12:50 | 51.74453 | 1.56388 | 19954 ft | 334 kts | 268° |
| 2026-04-14 12:50 | 51.74230 | 1.52665 | 19553 ft | 332 kts | 268° |
| 2026-04-14 12:51 | 51.74023 | 1.49019 | 19158 ft | 330 kts | 268° |
| 2026-04-14 12:51 | 51.73820 | 1.45357 | 18761 ft | 328 kts | 268° |
| 2026-04-14 12:51 | 51.73623 | 1.41677 | 18361 ft | 326 kts | 268° |
| 2026-04-14 12:51 | 51.73495 | 1.38062 | 17975 ft | 324 kts | 271° |
| 2026-04-14 12:52 | 51.73458 | 1.34441 | 17567 ft | 323 kts | 271° |
| 2026-04-14 12:52 | 51.73441 | 1.30865 | 17180 ft | 321 kts | 271° |
| 2026-04-14 12:52 | 51.73433 | 1.27256 | 16778 ft | 320 kts | 271° |
| 2026-04-14 12:52 | 51.73429 | 1.23723 | 16390 ft | 319 kts | 271° |
| 2026-04-14 12:53 | 51.73431 | 1.20123 | 15982 ft | 318 kts | 271° |
| 2026-04-14 12:53 | 51.73438 | 1.16595 | 15590 ft | 317 kts | 271° |
| 2026-04-14 12:53 | 51.73451 | 1.13064 | 15187 ft | 316 kts | 271° |
| 2026-04-14 12:53 | 51.73468 | 1.09556 | 14782 ft | 314 kts | 271° |
| 2026-04-14 12:54 | 51.73490 | 1.06063 | 14377 ft | 313 kts | 271° |
| 2026-04-14 12:54 | 51.73516 | 1.02572 | 13979 ft | 312 kts | 271° |
| 2026-04-14 12:54 | 51.73547 | 0.99081 | 13579 ft | 311 kts | 271° |
| 2026-04-14 12:54 | 51.73581 | 0.95577 | 13162 ft | 311 kts | 271° |
| 2026-04-14 12:55 | 51.73618 | 0.92118 | 12772 ft | 310 kts | 271° |
| 2026-04-14 12:55 | 51.73659 | 0.88655 | 12353 ft | 309 kts | 271° |
| 2026-04-14 12:55 | 51.73703 | 0.85210 | 11942 ft | 308 kts | 271° |
| 2026-04-14 12:55 | 51.73748 | 0.81794 | 11550 ft | 307 kts | 271° |
| 2026-04-14 12:56 | 51.73792 | 0.78372 | 11153 ft | 307 kts | 271° |
| 2026-04-14 12:56 | 51.73835 | 0.74957 | 10736 ft | 306 kts | 271° |
| 2026-04-14 12:56 | 51.73879 | 0.71515 | 10335 ft | 305 kts | 271° |
| 2026-04-14 12:56 | 51.73924 | 0.68139 | 9969 ft | 304 kts | 271° |
| 2026-04-14 12:57 | 51.73972 | 0.64730 | 9670 ft | 300 kts | 271° |
| 2026-04-14 12:57 | 51.74021 | 0.61454 | 9511 ft | 291 kts | 271° |
| 2026-04-14 12:57 | 51.74075 | 0.58247 | 9358 ft | 283 kts | 271° |
| 2026-04-14 12:57 | 51.74131 | 0.55108 | 9215 ft | 276 kts | 271° |
| 2026-04-14 12:58 | 51.74188 | 0.52046 | 9045 ft | 270 kts | 271° |
| 2026-04-14 12:58 | 51.74248 | 0.49031 | 8750 ft | 269 kts | 271° |
| 2026-04-14 12:58 | 51.74265 | 0.46057 | 8462 ft | 267 kts | 264° |
| 2026-04-14 12:58 | 51.73964 | 0.43132 | 8222 ft | 265 kts | 258° |
| 2026-04-14 12:59 | 51.73561 | 0.40248 | 8115 ft | 262 kts | 257° |
| 2026-04-14 12:59 | 51.73138 | 0.37357 | 8126 ft | 265 kts | 256° |
| 2026-04-14 12:59 | 51.72713 | 0.34474 | 8122 ft | 266 kts | 256° |
| 2026-04-14 12:59 | 51.72283 | 0.31559 | 8124 ft | 266 kts | 256° |
| 2026-04-14 13:00 | 51.71857 | 0.28666 | 8117 ft | 266 kts | 256° |
| 2026-04-14 13:00 | 51.71439 | 0.25804 | 8125 ft | 265 kts | 256° |
| 2026-04-14 13:00 | 51.71016 | 0.22918 | 8115 ft | 266 kts | 256° |
| 2026-04-14 13:00 | 51.70588 | 0.20004 | 8089 ft | 265 kts | 256° |
| 2026-04-14 13:01 | 51.70173 | 0.17141 | 8120 ft | 265 kts | 256° |
| 2026-04-14 13:01 | 51.69752 | 0.14254 | 8118 ft | 265 kts | 256° |
| 2026-04-14 13:01 | 51.69328 | 0.11352 | 8108 ft | 266 kts | 256° |
| 2026-04-14 13:01 | 51.68906 | 0.08457 | 8100 ft | 265 kts | 256° |
| 2026-04-14 13:02 | 51.68485 | 0.05557 | 8115 ft | 265 kts | 256° |
| 2026-04-14 13:02 | 51.68066 | 0.02683 | 8109 ft | 265 kts | 256° |
| 2026-04-14 13:02 | 51.67650 | -0.00191 | 8105 ft | 265 kts | 256° |
| 2026-04-14 13:02 | 51.67229 | -0.03100 | 8093 ft | 265 kts | 256° |
| 2026-04-14 13:03 | 51.66812 | -0.05977 | 8110 ft | 265 kts | 256° |
| 2026-04-14 13:03 | 51.66401 | -0.08851 | 8097 ft | 264 kts | 256° |
| 2026-04-14 13:03 | 51.65992 | -0.11722 | 8134 ft | 265 kts | 256° |
| 2026-04-14 13:03 | 51.65579 | -0.14638 | 8101 ft | 266 kts | 256° |
| 2026-04-14 13:04 | 51.65169 | -0.17495 | 8107 ft | 265 kts | 256° |
| 2026-04-14 13:04 | 51.64751 | -0.20410 | 8092 ft | 265 kts | 256° |
| 2026-04-14 13:04 | 51.64345 | -0.23264 | 8098 ft | 265 kts | 256° |
| 2026-04-14 13:04 | 51.63938 | -0.26143 | 8103 ft | 264 kts | 256° |
| 2026-04-14 13:05 | 51.63524 | -0.29055 | 8104 ft | 264 kts | 256° |
| 2026-04-14 13:05 | 51.63119 | -0.31907 | 8104 ft | 264 kts | 256° |
| 2026-04-14 13:05 | 51.62708 | -0.34798 | 8103 ft | 265 kts | 256° |
| 2026-04-14 13:05 | 51.62301 | -0.37678 | 8102 ft | 265 kts | 256° |
| 2026-04-14 13:06 | 51.61898 | -0.40558 | 8104 ft | 265 kts | 256° |
| 2026-04-14 13:06 | 51.61497 | -0.43435 | 8102 ft | 265 kts | 256° |
| 2026-04-14 13:06 | 51.61095 | -0.46344 | 8102 ft | 265 kts | 256° |
| 2026-04-14 13:06 | 51.60700 | -0.49213 | 8001 ft | 262 kts | 256° |
| 2026-04-14 13:07 | 51.60312 | -0.52058 | 7687 ft | 263 kts | 256° |
| 2026-04-14 13:07 | 51.59927 | -0.54922 | 7407 ft | 262 kts | 256° |
| 2026-04-14 13:07 | 51.59555 | -0.57745 | 7131 ft | 261 kts | 256° |
| 2026-04-14 13:07 | 51.59183 | -0.60584 | 6864 ft | 260 kts | 256° |
| 2026-04-14 13:08 | 51.58815 | -0.63428 | 6592 ft | 259 kts | 256° |
| 2026-04-14 13:08 | 51.58456 | -0.66262 | 6332 ft | 258 kts | 255° |
| 2026-04-14 13:08 | 51.58099 | -0.69088 | 6060 ft | 257 kts | 255° |
| 2026-04-14 13:08 | 51.57748 | -0.71893 | 5794 ft | 256 kts | 255° |
| 2026-04-14 13:09 | 51.57403 | -0.74659 | 5530 ft | 255 kts | 253° |
| 2026-04-14 13:09 | 51.56634 | -0.77185 | 5205 ft | 251 kts | 226° |
| 2026-04-14 13:09 | 51.55244 | -0.78753 | 4975 ft | 246 kts | 205° |
| 2026-04-14 13:09 | 51.53682 | -0.79838 | 4856 ft | 239 kts | 201° |
| 2026-04-14 13:10 | 51.52159 | -0.80807 | 4720 ft | 234 kts | 200° |
| 2026-04-14 13:10 | 51.50649 | -0.81754 | 4543 ft | 231 kts | 200° |
| 2026-04-14 13:10 | 51.49184 | -0.82679 | 4430 ft | 225 kts | 200° |
| 2026-04-14 13:10 | 51.47742 | -0.83594 | 4318 ft | 220 kts | 200° |
| 2026-04-14 13:11 | 51.46286 | -0.84155 | 4178 ft | 214 kts | 177° |
| 2026-04-14 13:11 | 51.44914 | -0.83377 | 4033 ft | 213 kts | 145° |
| 2026-04-14 13:11 | 51.44065 | -0.81438 | 3887 ft | 218 kts | 111° |
| 2026-04-14 13:11 | 51.44051 | -0.79040 | 3750 ft | 225 kts | 77° |
| 2026-04-14 13:12 | 51.44838 | -0.76852 | 3628 ft | 226 kts | 55° |
| 2026-04-14 13:12 | 51.45854 | -0.74977 | 3515 ft | 222 kts | 51° |
| 2026-04-14 13:12 | 51.46827 | -0.73096 | 3405 ft | 214 kts | 58° |
| 2026-04-14 13:12 | 51.47541 | -0.71100 | 3238 ft | 203 kts | 78° |
| 2026-04-14 13:13 | 51.47745 | -0.68899 | 2898 ft | 200 kts | 94° |
| 2026-04-14 13:13 | 51.47760 | -0.66716 | 2640 ft | 195 kts | 97° |
| 2026-04-14 13:13 | 51.47738 | -0.64593 | 2427 ft | 189 kts | 97° |
| 2026-04-14 13:13 | 51.47726 | -0.62518 | 2129 ft | 181 kts | 96° |
| 2026-04-14 13:14 | 51.47726 | -0.60539 | 1829 ft | 175 kts | 97° |
| 2026-04-14 13:14 | 51.47730 | -0.58626 | 1549 ft | 171 kts | 96° |
| 2026-04-14 13:14 | 51.47734 | -0.56729 | 1234 ft | 169 kts | 96° |
| 2026-04-14 13:14 | 51.47738 | -0.54854 | 933 ft | 167 kts | 95° |
| 2026-04-14 13:15 | 51.47742 | -0.53042 | 676 ft | 162 kts | 95° |
| 2026-04-14 13:15 | 51.47747 | -0.51254 | 461 ft | 156 kts | 95° |
| 2026-04-14 13:15 | 51.47748 | -0.49566 | 273 ft | 150 kts | 95° |
| 2026-04-14 13:15 | 51.47753 | -0.47913 | 117 ft | 143 kts | 94° |
| 2026-04-14 13:16 | 51.47755 | -0.46417 | 94 ft | 122 kts | 88° |
| 2026-04-14 13:16 | 51.47760 | -0.45210 | 100 ft | 94 kts | 88° |
| 2026-04-14 13:16 | 51.47762 | -0.44439 | 100 ft | 59 kts | 89° |
| 2026-04-14 13:16 | 51.47765 | -0.43789 | 96 ft | 55 kts | 89° |
| 2026-04-14 13:17 | 51.47762 | -0.43465 | 91 ft | 11 kts | 115° |
| 2026-04-14 13:17 | 51.47694 | -0.43424 | 88 ft | 13 kts | 177° |
| 2026-04-14 13:17 | 51.47635 | -0.43422 | 87 ft | 0 kts | 180° |
| 2026-04-14 13:17 | 51.47626 | -0.43422 | 86 ft | 3 kts | 181° |
| 2026-04-14 13:18 | 51.47580 | -0.43424 | 86 ft | 9 kts | 180° |
| 2026-04-14 13:18 | 51.47506 | -0.43426 | 84 ft | 9 kts | 180° |
| 2026-04-14 13:18 | 51.47448 | -0.43425 | 84 ft | 6 kts | 179° |
| 2026-04-14 13:18 | 51.47399 | -0.43436 | 84 ft | 8 kts | 202° |
| 2026-04-14 13:19 | 51.47342 | -0.43501 | 82 ft | 12 kts | 219° |
| 2026-04-14 13:19 | 51.47268 | -0.43581 | 79 ft | 12 kts | 197° |
| 2026-04-14 13:19 | 51.47182 | -0.43597 | 80 ft | 12 kts | 196° |
| 2026-04-14 13:19 | 51.47136 | -0.43717 | 78 ft | 11 kts | 234° |
| 2026-04-14 13:20 | 51.47069 | -0.43752 | 80 ft | 9 kts | 182° |
| 2026-04-14 13:20 | 51.47009 | -0.43753 | 83 ft | 7 kts | 180° |
| 2026-04-14 13:20 | 51.46961 | -0.43753 | 85 ft | 6 kts | 180° |
| 2026-04-14 13:20 | 51.46938 | -0.43754 | 86 ft | 0 kts | 180° |
| 2026-04-14 13:21 | 51.46932 | -0.43754 | 86 ft | 2 kts | 180° |
| 2026-04-14 13:21 | 51.46867 | -0.43754 | 86 ft | 13 kts | 181° |
| 2026-04-14 13:21 | 51.46783 | -0.43820 | 86 ft | 13 kts | 236° |
| 2026-04-14 13:21 | 51.46771 | -0.43949 | 93 ft | 8 kts | 269° |
| 2026-04-14 13:22 | 51.46766 | -0.44031 | 98 ft | 8 kts | 257° |
| 2026-04-14 13:22 | 51.46754 | -0.44157 | 98 ft | 15 kts | 267° |
| 2026-04-14 13:22 | 51.46752 | -0.44351 | 99 ft | 17 kts | 269° |
| 2026-04-14 13:22 | 51.46758 | -0.44509 | 106 ft | 11 kts | 298° |
| 2026-04-14 13:23 | 51.46823 | -0.44554 | 110 ft | 9 kts | 355° |
| 2026-04-14 13:23 | 51.46888 | -0.44556 | 113 ft | 9 kts | 359° |
| 2026-04-14 13:23 | 51.46936 | -0.44593 | 113 ft | 8 kts | 279° |
| 2026-04-14 13:23 | 51.46936 | -0.44674 | 109 ft | 4 kts | 270° |
| 2026-04-14 13:24 | 51.46936 | -0.44699 | 108 ft | 0 kts | 270° |
| 2026-04-14 13:24 | 51.46936 | -0.44701 | 108 ft | 0 kts | 270° |